sensor_id;sensor_type;location;lat;lon;timestamp;P1;durP1;ratioP1;P2;durP2;ratioP2
69386;SDS011;56575;48.942;8.404;2023-04-15T00:00:20;2.80;;;1.10;;
69386;SDS011;56575;48.942;8.404;2023-04-15T00:02:46;4.17;;;1.30;;
69386;SDS011;56575;48.942;8.404;2023-04-15T00:05:12;4.05;;;1.20;;
69386;SDS011;56575;48.942;8.404;2023-04-15T00:07:37;3.87;;;1.27;;
69386;SDS011;56575;48.942;8.404;2023-04-15T00:10:04;2.50;;;1.20;;
69386;SDS011;56575;48.942;8.404;2023-04-15T00:12:30;3.83;;;1.48;;
69386;SDS011;56575;48.942;8.404;2023-04-15T00:14:55;3.30;;;1.20;;
69386;SDS011;56575;48.942;8.404;2023-04-15T00:17:21;4.07;;;1.20;;
69386;SDS011;56575;48.942;8.404;2023-04-15T00:19:46;3.53;;;1.03;;
69386;SDS011;56575;48.942;8.404;2023-04-15T00:22:12;3.13;;;1.27;;
69386;SDS011;56575;48.942;8.404;2023-04-15T00:24:38;3.40;;;1.20;;
69386;SDS011;56575;48.942;8.404;2023-04-15T00:27:03;3.70;;;1.33;;
69386;SDS011;56575;48.942;8.404;2023-04-15T00:29:29;4.27;;;1.20;;
69386;SDS011;56575;48.942;8.404;2023-04-15T00:31:55;3.13;;;1.30;;
69386;SDS011;56575;48.942;8.404;2023-04-15T00:34:21;3.75;;;1.20;;
69386;SDS011;56575;48.942;8.404;2023-04-15T00:36:47;4.30;;;1.17;;
69386;SDS011;56575;48.942;8.404;2023-04-15T00:39:13;2.70;;;1.10;;
69386;SDS011;56575;48.942;8.404;2023-04-15T00:41:38;3.37;;;1.00;;
69386;SDS011;56575;48.942;8.404;2023-04-15T00:44:05;2.90;;;1.23;;
69386;SDS011;56575;48.942;8.404;2023-04-15T00:46:30;4.10;;;1.50;;
69386;SDS011;56575;48.942;8.404;2023-04-15T00:48:59;3.75;;;1.17;;
69386;SDS011;56575;48.942;8.404;2023-04-15T00:51:25;2.95;;;1.25;;
69386;SDS011;56575;48.942;8.404;2023-04-15T00:53:50;3.70;;;1.20;;
69386;SDS011;56575;48.942;8.404;2023-04-15T00:56:16;4.17;;;1.30;;
69386;SDS011;56575;48.942;8.404;2023-04-15T00:58:41;4.18;;;1.10;;
69386;SDS011;56575;48.942;8.404;2023-04-15T01:01:07;3.13;;;1.00;;
69386;SDS011;56575;48.942;8.404;2023-04-15T01:03:32;3.90;;;1.40;;
69386;SDS011;56575;48.942;8.404;2023-04-15T01:05:58;2.57;;;1.33;;
69386;SDS011;56575;48.942;8.404;2023-04-15T01:08:27;3.00;;;1.20;;
69386;SDS011;56575;48.942;8.404;2023-04-15T01:10:54;3.45;;;1.00;;
69386;SDS011;56575;48.942;8.404;2023-04-15T01:13:21;4.70;;;1.50;;
69386;SDS011;56575;48.942;8.404;2023-04-15T01:15:48;5.38;;;0.88;;
69386;SDS011;56575;48.942;8.404;2023-04-15T01:18:13;3.17;;;1.03;;
69386;SDS011;56575;48.942;8.404;2023-04-15T01:20:39;3.13;;;1.38;;
69386;SDS011;56575;48.942;8.404;2023-04-15T01:23:05;3.80;;;1.50;;
69386;SDS011;56575;48.942;8.404;2023-04-15T01:25:31;5.68;;;1.40;;
69386;SDS011;56575;48.942;8.404;2023-04-15T01:27:57;2.47;;;1.10;;
69386;SDS011;56575;48.942;8.404;2023-04-15T01:30:23;3.27;;;1.30;;
69386;SDS011;56575;48.942;8.404;2023-04-15T01:32:49;3.65;;;1.13;;
69386;SDS011;56575;48.942;8.404;2023-04-15T01:35:15;3.90;;;1.38;;
69386;SDS011;56575;48.942;8.404;2023-04-15T01:37:41;3.67;;;1.23;;
69386;SDS011;56575;48.942;8.404;2023-04-15T01:40:06;3.53;;;1.20;;
69386;SDS011;56575;48.942;8.404;2023-04-15T01:42:33;4.37;;;1.20;;
69386;SDS011;56575;48.942;8.404;2023-04-15T01:45:00;5.25;;;1.30;;
69386;SDS011;56575;48.942;8.404;2023-04-15T01:47:26;2.70;;;1.17;;
69386;SDS011;56575;48.942;8.404;2023-04-15T01:49:51;5.85;;;1.83;;
69386;SDS011;56575;48.942;8.404;2023-04-15T01:52:17;8.17;;;2.07;;
69386;SDS011;56575;48.942;8.404;2023-04-15T01:54:42;3.30;;;1.40;;
69386;SDS011;56575;48.942;8.404;2023-04-15T01:57:08;3.55;;;1.52;;
69386;SDS011;56575;48.942;8.404;2023-04-15T01:59:33;3.57;;;1.40;;
69386;SDS011;56575;48.942;8.404;2023-04-15T02:01:59;5.28;;;1.45;;
69386;SDS011;56575;48.942;8.404;2023-04-15T02:04:25;3.90;;;1.47;;
69386;SDS011;56575;48.942;8.404;2023-04-15T02:06:50;3.22;;;1.13;;
69386;SDS011;56575;48.942;8.404;2023-04-15T02:09:16;3.50;;;1.27;;
69386;SDS011;56575;48.942;8.404;2023-04-15T02:11:41;4.57;;;1.37;;
69386;SDS011;56575;48.942;8.404;2023-04-15T02:14:06;3.00;;;1.30;;
69386;SDS011;56575;48.942;8.404;2023-04-15T02:16:32;5.73;;;1.37;;
69386;SDS011;56575;48.942;8.404;2023-04-15T02:18:58;5.45;;;1.30;;
69386;SDS011;56575;48.942;8.404;2023-04-15T02:21:25;4.40;;;1.30;;
69386;SDS011;56575;48.942;8.404;2023-04-15T02:23:50;3.22;;;1.33;;
69386;SDS011;56575;48.942;8.404;2023-04-15T02:26:17;3.70;;;0.97;;
69386;SDS011;56575;48.942;8.404;2023-04-15T02:28:43;3.40;;;1.20;;
69386;SDS011;56575;48.942;8.404;2023-04-15T02:31:08;3.00;;;1.17;;
69386;SDS011;56575;48.942;8.404;2023-04-15T02:33:34;2.27;;;1.10;;
69386;SDS011;56575;48.942;8.404;2023-04-15T02:36:01;4.60;;;1.42;;
69386;SDS011;56575;48.942;8.404;2023-04-15T02:38:26;4.47;;;1.30;;
69386;SDS011;56575;48.942;8.404;2023-04-15T02:40:51;3.33;;;1.20;;
69386;SDS011;56575;48.942;8.404;2023-04-15T02:43:17;3.90;;;1.40;;
69386;SDS011;56575;48.942;8.404;2023-04-15T02:45:42;3.20;;;1.23;;
69386;SDS011;56575;48.942;8.404;2023-04-15T02:48:09;3.38;;;1.13;;
69386;SDS011;56575;48.942;8.404;2023-04-15T02:50:35;4.68;;;1.40;;
69386;SDS011;56575;48.942;8.404;2023-04-15T02:53:02;3.00;;;1.27;;
69386;SDS011;56575;48.942;8.404;2023-04-15T02:55:28;5.65;;;1.30;;
69386;SDS011;56575;48.942;8.404;2023-04-15T02:57:54;4.22;;;1.20;;
69386;SDS011;56575;48.942;8.404;2023-04-15T03:00:19;3.50;;;1.40;;
69386;SDS011;56575;48.942;8.404;2023-04-15T03:02:45;4.10;;;1.20;;
69386;SDS011;56575;48.942;8.404;2023-04-15T03:05:11;5.30;;;1.20;;
69386;SDS011;56575;48.942;8.404;2023-04-15T03:07:38;3.33;;;1.38;;
69386;SDS011;56575;48.942;8.404;2023-04-15T03:10:05;3.10;;;1.00;;
69386;SDS011;56575;48.942;8.404;2023-04-15T03:12:31;2.80;;;1.20;;
69386;SDS011;56575;48.942;8.404;2023-04-15T03:14:56;4.83;;;1.27;;
69386;SDS011;56575;48.942;8.404;2023-04-15T03:17:22;4.47;;;1.38;;
69386;SDS011;56575;48.942;8.404;2023-04-15T03:19:47;3.47;;;1.43;;
69386;SDS011;56575;48.942;8.404;2023-04-15T03:22:13;4.17;;;1.37;;
69386;SDS011;56575;48.942;8.404;2023-04-15T03:24:38;3.63;;;1.50;;
69386;SDS011;56575;48.942;8.404;2023-04-15T03:27:03;4.13;;;1.60;;
69386;SDS011;56575;48.942;8.404;2023-04-15T03:29:31;4.95;;;1.27;;
69386;SDS011;56575;48.942;8.404;2023-04-15T03:31:57;3.75;;;1.27;;
69386;SDS011;56575;48.942;8.404;2023-04-15T03:34:22;4.40;;;1.20;;
69386;SDS011;56575;48.942;8.404;2023-04-15T03:36:48;3.03;;;1.37;;
69386;SDS011;56575;48.942;8.404;2023-04-15T03:39:13;4.27;;;1.17;;
69386;SDS011;56575;48.942;8.404;2023-04-15T03:41:38;3.63;;;1.33;;
69386;SDS011;56575;48.942;8.404;2023-04-15T03:44:04;3.25;;;1.30;;
69386;SDS011;56575;48.942;8.404;2023-04-15T03:46:29;4.83;;;1.40;;
69386;SDS011;56575;48.942;8.404;2023-04-15T03:48:55;5.07;;;1.23;;
69386;SDS011;56575;48.942;8.404;2023-04-15T03:51:20;3.87;;;1.47;;
69386;SDS011;56575;48.942;8.404;2023-04-15T03:53:46;4.40;;;1.27;;
69386;SDS011;56575;48.942;8.404;2023-04-15T03:56:11;4.97;;;1.50;;
69386;SDS011;56575;48.942;8.404;2023-04-15T03:58:36;3.97;;;1.30;;
69386;SDS011;56575;48.942;8.404;2023-04-15T04:01:02;3.95;;;1.20;;
69386;SDS011;56575;48.942;8.404;2023-04-15T04:03:27;3.27;;;1.43;;
69386;SDS011;56575;48.942;8.404;2023-04-15T04:05:52;4.23;;;1.40;;
69386;SDS011;56575;48.942;8.404;2023-04-15T04:08:18;3.30;;;1.40;;
69386;SDS011;56575;48.942;8.404;2023-04-15T04:10:45;4.38;;;1.52;;
69386;SDS011;56575;48.942;8.404;2023-04-15T04:13:11;3.30;;;1.30;;
69386;SDS011;56575;48.942;8.404;2023-04-15T04:15:36;5.47;;;1.73;;
69386;SDS011;56575;48.942;8.404;2023-04-15T04:18:01;4.03;;;1.33;;
69386;SDS011;56575;48.942;8.404;2023-04-15T04:20:27;3.03;;;1.40;;
69386;SDS011;56575;48.942;8.404;2023-04-15T04:22:53;3.97;;;1.40;;
69386;SDS011;56575;48.942;8.404;2023-04-15T04:25:18;3.40;;;1.20;;
69386;SDS011;56575;48.942;8.404;2023-04-15T04:27:44;2.30;;;1.27;;
69386;SDS011;56575;48.942;8.404;2023-04-15T04:30:09;3.65;;;1.27;;
69386;SDS011;56575;48.942;8.404;2023-04-15T04:32:35;4.30;;;1.47;;
69386;SDS011;56575;48.942;8.404;2023-04-15T04:35:01;3.80;;;1.60;;
69386;SDS011;56575;48.942;8.404;2023-04-15T04:37:26;5.40;;;1.83;;
69386;SDS011;56575;48.942;8.404;2023-04-15T04:39:52;4.03;;;1.70;;
69386;SDS011;56575;48.942;8.404;2023-04-15T04:42:17;6.10;;;1.58;;
69386;SDS011;56575;48.942;8.404;2023-04-15T04:44:43;4.83;;;1.77;;
69386;SDS011;56575;48.942;8.404;2023-04-15T04:47:08;4.53;;;1.37;;
69386;SDS011;56575;48.942;8.404;2023-04-15T04:49:34;6.07;;;1.95;;
69386;SDS011;56575;48.942;8.404;2023-04-15T04:51:59;3.50;;;1.47;;
69386;SDS011;56575;48.942;8.404;2023-04-15T04:54:25;6.53;;;1.30;;
69386;SDS011;56575;48.942;8.404;2023-04-15T04:56:51;6.00;;;1.50;;
69386;SDS011;56575;48.942;8.404;2023-04-15T04:59:17;4.22;;;1.70;;
69386;SDS011;56575;48.942;8.404;2023-04-15T05:01:42;4.30;;;1.47;;
69386;SDS011;56575;48.942;8.404;2023-04-15T05:04:08;4.77;;;1.63;;
69386;SDS011;56575;48.942;8.404;2023-04-15T05:06:33;4.18;;;1.50;;
69386;SDS011;56575;48.942;8.404;2023-04-15T05:09:00;3.90;;;1.50;;
69386;SDS011;56575;48.942;8.404;2023-04-15T05:11:27;3.33;;;1.55;;
69386;SDS011;56575;48.942;8.404;2023-04-15T05:13:52;9.07;;;1.80;;
69386;SDS011;56575;48.942;8.404;2023-04-15T05:16:17;3.10;;;1.50;;
69386;SDS011;56575;48.942;8.404;2023-04-15T05:18:43;5.97;;;1.80;;
69386;SDS011;56575;48.942;8.404;2023-04-15T05:21:09;4.70;;;1.58;;
69386;SDS011;56575;48.942;8.404;2023-04-15T05:23:34;4.73;;;1.43;;
69386;SDS011;56575;48.942;8.404;2023-04-15T05:26:00;4.87;;;1.60;;
69386;SDS011;56575;48.942;8.404;2023-04-15T05:28:25;4.50;;;1.40;;
69386;SDS011;56575;48.942;8.404;2023-04-15T05:30:51;3.17;;;1.37;;
69386;SDS011;56575;48.942;8.404;2023-04-15T05:33:16;4.47;;;1.60;;
69386;SDS011;56575;48.942;8.404;2023-04-15T05:35:42;4.85;;;1.60;;
69386;SDS011;56575;48.942;8.404;2023-04-15T05:38:07;5.23;;;1.53;;
69386;SDS011;56575;48.942;8.404;2023-04-15T05:40:32;4.93;;;1.80;;
69386;SDS011;56575;48.942;8.404;2023-04-15T05:42:58;2.63;;;1.50;;
69386;SDS011;56575;48.942;8.404;2023-04-15T05:45:23;3.83;;;1.60;;
69386;SDS011;56575;48.942;8.404;2023-04-15T05:47:49;5.93;;;1.88;;
69386;SDS011;56575;48.942;8.404;2023-04-15T05:50:15;3.90;;;1.67;;
69386;SDS011;56575;48.942;8.404;2023-04-15T05:52:40;6.10;;;1.60;;
69386;SDS011;56575;48.942;8.404;2023-04-15T05:55:06;4.07;;;1.50;;
69386;SDS011;56575;48.942;8.404;2023-04-15T05:57:31;3.38;;;1.52;;
69386;SDS011;56575;48.942;8.404;2023-04-15T05:59:57;5.07;;;1.53;;
69386;SDS011;56575;48.942;8.404;2023-04-15T06:02:22;4.17;;;1.77;;
69386;SDS011;56575;48.942;8.404;2023-04-15T06:04:47;4.10;;;1.60;;
69386;SDS011;56575;48.942;8.404;2023-04-15T06:07:13;5.17;;;1.67;;
69386;SDS011;56575;48.942;8.404;2023-04-15T06:09:38;5.37;;;1.70;;
69386;SDS011;56575;48.942;8.404;2023-04-15T06:12:04;3.93;;;2.30;;
69386;SDS011;56575;48.942;8.404;2023-04-15T06:14:30;4.40;;;2.05;;
69386;SDS011;56575;48.942;8.404;2023-04-15T06:16:56;7.93;;;2.20;;
69386;SDS011;56575;48.942;8.404;2023-04-15T06:19:21;5.83;;;2.17;;
69386;SDS011;56575;48.942;8.404;2023-04-15T06:21:46;6.43;;;2.10;;
69386;SDS011;56575;48.942;8.404;2023-04-15T06:24:12;4.50;;;1.70;;
69386;SDS011;56575;48.942;8.404;2023-04-15T06:26:37;5.83;;;2.60;;
69386;SDS011;56575;48.942;8.404;2023-04-15T06:29:03;5.70;;;1.90;;
69386;SDS011;56575;48.942;8.404;2023-04-15T06:31:28;4.87;;;1.70;;
69386;SDS011;56575;48.942;8.404;2023-04-15T06:33:54;3.97;;;1.87;;
69386;SDS011;56575;48.942;8.404;2023-04-15T06:36:19;7.15;;;2.15;;
69386;SDS011;56575;48.942;8.404;2023-04-15T06:38:45;5.33;;;2.60;;
69386;SDS011;56575;48.942;8.404;2023-04-15T06:41:11;5.13;;;2.40;;
69386;SDS011;56575;48.942;8.404;2023-04-15T06:43:36;6.33;;;2.20;;
69386;SDS011;56575;48.942;8.404;2023-04-15T06:46:02;4.53;;;2.03;;
69386;SDS011;56575;48.942;8.404;2023-04-15T06:48:27;5.93;;;2.47;;
69386;SDS011;56575;48.942;8.404;2023-04-15T06:50:53;6.53;;;2.50;;
69386;SDS011;56575;48.942;8.404;2023-04-15T06:53:18;5.83;;;2.40;;
69386;SDS011;56575;48.942;8.404;2023-04-15T06:55:44;4.43;;;2.30;;
69386;SDS011;56575;48.942;8.404;2023-04-15T06:58:09;4.37;;;2.40;;
69386;SDS011;56575;48.942;8.404;2023-04-15T07:00:35;4.30;;;2.33;;
69386;SDS011;56575;48.942;8.404;2023-04-15T07:03:02;6.25;;;2.10;;
69386;SDS011;56575;48.942;8.404;2023-04-15T07:05:29;6.07;;;2.63;;
69386;SDS011;56575;48.942;8.404;2023-04-15T07:07:56;6.38;;;2.55;;
69386;SDS011;56575;48.942;8.404;2023-04-15T07:10:21;5.93;;;2.20;;
69386;SDS011;56575;48.942;8.404;2023-04-15T07:12:47;6.00;;;2.60;;
69386;SDS011;56575;48.942;8.404;2023-04-15T07:15:14;5.63;;;2.63;;
69386;SDS011;56575;48.942;8.404;2023-04-15T07:17:40;4.47;;;2.53;;
69386;SDS011;56575;48.942;8.404;2023-04-15T07:20:07;4.20;;;2.40;;
69386;SDS011;56575;48.942;8.404;2023-04-15T07:22:33;5.70;;;2.35;;
69386;SDS011;56575;48.942;8.404;2023-04-15T07:24:58;6.47;;;2.80;;
69386;SDS011;56575;48.942;8.404;2023-04-15T07:27:23;10.07;;;2.40;;
69386;SDS011;56575;48.942;8.404;2023-04-15T07:29:50;5.70;;;2.93;;
69386;SDS011;56575;48.942;8.404;2023-04-15T07:32:16;9.85;;;3.13;;
69386;SDS011;56575;48.942;8.404;2023-04-15T07:34:41;6.78;;;3.33;;
69386;SDS011;56575;48.942;8.404;2023-04-15T07:37:07;7.43;;;3.17;;
69386;SDS011;56575;48.942;8.404;2023-04-15T07:39:32;7.67;;;3.00;;
69386;SDS011;56575;48.942;8.404;2023-04-15T07:41:58;7.13;;;3.28;;
69386;SDS011;56575;48.942;8.404;2023-04-15T07:44:24;5.57;;;2.83;;
69386;SDS011;56575;48.942;8.404;2023-04-15T07:46:50;8.55;;;3.13;;
69386;SDS011;56575;48.942;8.404;2023-04-15T07:49:16;8.87;;;3.03;;
69386;SDS011;56575;48.942;8.404;2023-04-15T07:51:43;6.05;;;2.90;;
69386;SDS011;56575;48.942;8.404;2023-04-15T07:54:08;6.37;;;3.40;;
69386;SDS011;56575;48.942;8.404;2023-04-15T07:56:34;6.28;;;3.20;;
69386;SDS011;56575;48.942;8.404;2023-04-15T07:58:59;6.77;;;3.33;;
69386;SDS011;56575;48.942;8.404;2023-04-15T08:01:26;6.07;;;2.95;;
69386;SDS011;56575;48.942;8.404;2023-04-15T08:03:51;7.63;;;2.83;;
69386;SDS011;56575;48.942;8.404;2023-04-15T08:06:17;7.43;;;2.97;;
69386;SDS011;56575;48.942;8.404;2023-04-15T08:08:42;6.50;;;2.80;;
69386;SDS011;56575;48.942;8.404;2023-04-15T08:11:08;6.00;;;2.80;;
69386;SDS011;56575;48.942;8.404;2023-04-15T08:13:33;7.27;;;2.90;;
69386;SDS011;56575;48.942;8.404;2023-04-15T08:18:52;8.00;;;3.25;;
69386;SDS011;56575;48.942;8.404;2023-04-15T08:21:19;7.67;;;3.07;;
69386;SDS011;56575;48.942;8.404;2023-04-15T08:23:45;7.60;;;3.00;;
69386;SDS011;56575;48.942;8.404;2023-04-15T08:26:11;5.32;;;2.63;;
69386;SDS011;56575;48.942;8.404;2023-04-15T08:28:37;6.93;;;2.80;;
69386;SDS011;56575;48.942;8.404;2023-04-15T08:31:04;5.90;;;2.92;;
69386;SDS011;56575;48.942;8.404;2023-04-15T08:33:29;5.70;;;3.20;;
69386;SDS011;56575;48.942;8.404;2023-04-15T08:35:55;6.03;;;2.80;;
69386;SDS011;56575;48.942;8.404;2023-04-15T08:38:20;6.13;;;2.80;;
69386;SDS011;56575;48.942;8.404;2023-04-15T08:40:46;7.88;;;3.15;;
69386;SDS011;56575;48.942;8.404;2023-04-15T08:43:14;5.77;;;2.73;;
69386;SDS011;56575;48.942;8.404;2023-04-15T08:45:44;6.13;;;3.05;;
69386;SDS011;56575;48.942;8.404;2023-04-15T08:48:14;8.83;;;2.83;;
69386;SDS011;56575;48.942;8.404;2023-04-15T08:50:42;5.97;;;2.70;;
69386;SDS011;56575;48.942;8.404;2023-04-15T08:53:12;5.53;;;3.20;;
69386;SDS011;56575;48.942;8.404;2023-04-15T08:55:44;6.18;;;3.10;;
69386;SDS011;56575;48.942;8.404;2023-04-15T08:58:10;5.05;;;2.33;;
69386;SDS011;56575;48.942;8.404;2023-04-15T09:00:36;5.07;;;2.40;;
69386;SDS011;56575;48.942;8.404;2023-04-15T09:03:05;6.28;;;2.25;;
69386;SDS011;56575;48.942;8.404;2023-04-15T09:05:32;5.30;;;2.58;;
69386;SDS011;56575;48.942;8.404;2023-04-15T09:07:58;9.75;;;2.92;;
69386;SDS011;56575;48.942;8.404;2023-04-15T09:10:24;8.75;;;2.90;;
69386;SDS011;56575;48.942;8.404;2023-04-15T09:12:49;8.60;;;2.80;;
69386;SDS011;56575;48.942;8.404;2023-04-15T09:15:15;6.80;;;2.40;;
69386;SDS011;56575;48.942;8.404;2023-04-15T09:17:44;5.75;;;2.40;;
69386;SDS011;56575;48.942;8.404;2023-04-15T09:20:11;4.90;;;2.50;;
69386;SDS011;56575;48.942;8.404;2023-04-15T09:22:41;6.27;;;2.50;;
69386;SDS011;56575;48.942;8.404;2023-04-15T09:27:50;7.13;;;3.10;;
69386;SDS011;56575;48.942;8.404;2023-04-15T09:30:17;7.30;;;2.50;;
69386;SDS011;56575;48.942;8.404;2023-04-15T09:32:49;6.70;;;2.70;;
69386;SDS011;56575;48.942;8.404;2023-04-15T09:35:21;6.88;;;2.60;;
69386;SDS011;56575;48.942;8.404;2023-04-15T09:37:48;5.82;;;2.60;;
69386;SDS011;56575;48.942;8.404;2023-04-15T09:40:13;4.82;;;2.33;;
69386;SDS011;56575;48.942;8.404;2023-04-15T09:42:57;7.63;;;2.73;;
69386;SDS011;56575;48.942;8.404;2023-04-15T09:45:23;5.03;;;2.25;;
69386;SDS011;56575;48.942;8.404;2023-04-15T09:47:48;5.17;;;2.90;;
69386;SDS011;56575;48.942;8.404;2023-04-15T09:50:17;5.45;;;2.60;;
69386;SDS011;56575;48.942;8.404;2023-04-15T09:52:44;5.43;;;2.50;;
69386;SDS011;56575;48.942;8.404;2023-04-15T09:55:11;5.85;;;2.78;;
69386;SDS011;56575;48.942;8.404;2023-04-15T09:57:37;6.38;;;2.47;;
69386;SDS011;56575;48.942;8.404;2023-04-15T10:00:06;4.27;;;2.30;;
69386;SDS011;56575;48.942;8.404;2023-04-15T10:02:36;6.80;;;2.63;;
69386;SDS011;56575;48.942;8.404;2023-04-15T10:05:03;7.90;;;2.47;;
69386;SDS011;56575;48.942;8.404;2023-04-15T10:07:28;6.23;;;2.60;;
69386;SDS011;56575;48.942;8.404;2023-04-15T10:09:54;6.23;;;3.20;;
69386;SDS011;56575;48.942;8.404;2023-04-15T10:12:20;6.78;;;3.00;;
69386;SDS011;56575;48.942;8.404;2023-04-15T10:14:55;6.10;;;3.00;;
69386;SDS011;56575;48.942;8.404;2023-04-15T10:17:25;7.57;;;3.30;;
69386;SDS011;56575;48.942;8.404;2023-04-15T10:19:59;6.10;;;2.93;;
69386;SDS011;56575;48.942;8.404;2023-04-15T10:22:26;8.32;;;3.20;;
69386;SDS011;56575;48.942;8.404;2023-04-15T10:24:52;7.88;;;4.00;;
69386;SDS011;56575;48.942;8.404;2023-04-15T10:27:19;6.00;;;3.17;;
69386;SDS011;56575;48.942;8.404;2023-04-15T10:29:46;5.00;;;3.03;;
69386;SDS011;56575;48.942;8.404;2023-04-15T10:32:13;6.70;;;3.57;;
69386;SDS011;56575;48.942;8.404;2023-04-15T10:34:39;5.80;;;3.13;;
69386;SDS011;56575;48.942;8.404;2023-04-15T10:37:08;6.78;;;3.60;;
69386;SDS011;56575;48.942;8.404;2023-04-15T10:42:10;6.82;;;3.60;;
69386;SDS011;56575;48.942;8.404;2023-04-15T10:44:37;6.80;;;3.70;;
69386;SDS011;56575;48.942;8.404;2023-04-15T10:47:09;7.40;;;3.58;;
69386;SDS011;56575;48.942;8.404;2023-04-15T10:49:41;7.95;;;3.95;;
69386;SDS011;56575;48.942;8.404;2023-04-15T10:52:09;9.98;;;4.00;;
69386;SDS011;56575;48.942;8.404;2023-04-15T10:54:35;6.43;;;3.38;;
69386;SDS011;56575;48.942;8.404;2023-04-15T10:59:35;6.18;;;3.80;;
69386;SDS011;56575;48.942;8.404;2023-04-15T11:02:03;9.30;;;4.40;;
69386;SDS011;56575;48.942;8.404;2023-04-15T11:07:32;6.32;;;3.70;;
69386;SDS011;56575;48.942;8.404;2023-04-15T11:10:01;6.60;;;3.97;;
69386;SDS011;56575;48.942;8.404;2023-04-15T11:12:34;6.72;;;3.35;;
69386;SDS011;56575;48.942;8.404;2023-04-15T11:15:23;7.63;;;3.40;;
69386;SDS011;56575;48.942;8.404;2023-04-15T11:20:40;6.13;;;3.63;;
69386;SDS011;56575;48.942;8.404;2023-04-15T11:23:09;4.25;;;3.08;;
69386;SDS011;56575;48.942;8.404;2023-04-15T11:25:35;8.03;;;3.90;;
69386;SDS011;56575;48.942;8.404;2023-04-15T11:28:03;6.97;;;3.70;;
69386;SDS011;56575;48.942;8.404;2023-04-15T11:30:30;9.07;;;4.43;;
69386;SDS011;56575;48.942;8.404;2023-04-15T11:33:01;8.98;;;4.75;;
69386;SDS011;56575;48.942;8.404;2023-04-15T11:35:28;8.77;;;4.22;;
69386;SDS011;56575;48.942;8.404;2023-04-15T11:37:54;7.63;;;3.43;;
69386;SDS011;56575;48.942;8.404;2023-04-15T11:40:23;6.57;;;3.20;;
69386;SDS011;56575;48.942;8.404;2023-04-15T11:43:04;5.78;;;3.20;;
69386;SDS011;56575;48.942;8.404;2023-04-15T11:45:32;6.07;;;2.73;;
69386;SDS011;56575;48.942;8.404;2023-04-15T11:48:08;5.75;;;2.40;;
69386;SDS011;56575;48.942;8.404;2023-04-15T11:50:35;5.20;;;2.10;;
69386;SDS011;56575;48.942;8.404;2023-04-15T11:53:04;4.82;;;2.50;;
69386;SDS011;56575;48.942;8.404;2023-04-15T11:55:30;4.57;;;2.20;;
69386;SDS011;56575;48.942;8.404;2023-04-15T11:58:10;3.78;;;2.22;;
69386;SDS011;56575;48.942;8.404;2023-04-15T12:00:58;7.00;;;2.70;;
69386;SDS011;56575;48.942;8.404;2023-04-15T12:03:25;5.45;;;2.53;;
69386;SDS011;56575;48.942;8.404;2023-04-15T12:11:20;5.82;;;2.05;;
69386;SDS011;56575;48.942;8.404;2023-04-15T12:13:58;6.95;;;2.50;;
69386;SDS011;56575;48.942;8.404;2023-04-15T12:16:24;4.90;;;2.17;;
69386;SDS011;56575;48.942;8.404;2023-04-15T12:18:55;3.45;;;2.20;;
69386;SDS011;56575;48.942;8.404;2023-04-15T12:21:23;4.27;;;2.47;;
69386;SDS011;56575;48.942;8.404;2023-04-15T12:23:50;5.22;;;2.30;;
69386;SDS011;56575;48.942;8.404;2023-04-15T12:26:17;5.57;;;2.67;;
69386;SDS011;56575;48.942;8.404;2023-04-15T12:28:49;6.57;;;2.80;;
69386;SDS011;56575;48.942;8.404;2023-04-15T12:31:24;4.70;;;2.40;;
69386;SDS011;56575;48.942;8.404;2023-04-15T12:33:50;4.70;;;2.40;;
69386;SDS011;56575;48.942;8.404;2023-04-15T12:36:15;5.10;;;3.03;;
69386;SDS011;56575;48.942;8.404;2023-04-15T12:38:41;5.13;;;2.13;;
69386;SDS011;56575;48.942;8.404;2023-04-15T12:41:06;4.37;;;2.50;;
69386;SDS011;56575;48.942;8.404;2023-04-15T12:43:32;5.40;;;2.97;;
69386;SDS011;56575;48.942;8.404;2023-04-15T12:45:57;5.73;;;3.10;;
69386;SDS011;56575;48.942;8.404;2023-04-15T12:48:22;5.47;;;3.10;;
69386;SDS011;56575;48.942;8.404;2023-04-15T12:50:48;10.70;;;4.00;;
69386;SDS011;56575;48.942;8.404;2023-04-15T12:53:13;5.07;;;2.90;;
69386;SDS011;56575;48.942;8.404;2023-04-15T12:55:39;6.10;;;3.00;;
69386;SDS011;56575;48.942;8.404;2023-04-15T12:58:04;6.07;;;2.80;;
69386;SDS011;56575;48.942;8.404;2023-04-15T13:00:32;4.47;;;2.47;;
69386;SDS011;56575;48.942;8.404;2023-04-15T13:02:58;3.97;;;2.42;;
69386;SDS011;56575;48.942;8.404;2023-04-15T13:05:23;5.20;;;2.67;;
69386;SDS011;56575;48.942;8.404;2023-04-15T13:07:49;4.97;;;2.42;;
69386;SDS011;56575;48.942;8.404;2023-04-15T13:10:15;5.10;;;2.33;;
69386;SDS011;56575;48.942;8.404;2023-04-15T13:12:40;6.05;;;2.40;;
69386;SDS011;56575;48.942;8.404;2023-04-15T13:15:06;4.13;;;2.20;;
69386;SDS011;56575;48.942;8.404;2023-04-15T13:17:34;6.70;;;2.20;;
69386;SDS011;56575;48.942;8.404;2023-04-15T13:20:00;5.77;;;2.37;;
69386;SDS011;56575;48.942;8.404;2023-04-15T13:22:25;3.93;;;2.27;;
69386;SDS011;56575;48.942;8.404;2023-04-15T13:24:51;5.82;;;2.70;;
69386;SDS011;56575;48.942;8.404;2023-04-15T13:27:16;4.47;;;2.57;;
69386;SDS011;56575;48.942;8.404;2023-04-15T13:29:42;5.15;;;2.60;;
69386;SDS011;56575;48.942;8.404;2023-04-15T13:32:08;6.97;;;2.67;;
69386;SDS011;56575;48.942;8.404;2023-04-15T13:34:34;6.35;;;2.35;;
69386;SDS011;56575;48.942;8.404;2023-04-15T13:37:05;5.47;;;2.40;;
69386;SDS011;56575;48.942;8.404;2023-04-15T13:39:31;4.82;;;2.30;;
69386;SDS011;56575;48.942;8.404;2023-04-15T13:41:56;4.40;;;2.10;;
69386;SDS011;56575;48.942;8.404;2023-04-15T13:44:22;4.35;;;2.10;;
69386;SDS011;56575;48.942;8.404;2023-04-15T13:46:47;5.30;;;2.90;;
69386;SDS011;56575;48.942;8.404;2023-04-15T13:49:12;5.20;;;2.53;;
69386;SDS011;56575;48.942;8.404;2023-04-15T13:51:38;5.83;;;2.80;;
69386;SDS011;56575;48.942;8.404;2023-04-15T13:54:04;4.75;;;2.13;;
69386;SDS011;56575;48.942;8.404;2023-04-15T13:56:30;4.28;;;2.35;;
69386;SDS011;56575;48.942;8.404;2023-04-15T13:58:55;6.43;;;2.67;;
69386;SDS011;56575;48.942;8.404;2023-04-15T14:01:23;6.05;;;2.90;;
69386;SDS011;56575;48.942;8.404;2023-04-15T14:03:49;5.87;;;2.53;;
69386;SDS011;56575;48.942;8.404;2023-04-15T14:06:14;5.43;;;2.50;;
69386;SDS011;56575;48.942;8.404;2023-04-15T14:08:40;5.00;;;3.00;;
69386;SDS011;56575;48.942;8.404;2023-04-15T14:11:05;6.83;;;2.80;;
69386;SDS011;56575;48.942;8.404;2023-04-15T14:13:30;6.40;;;2.90;;
69386;SDS011;56575;48.942;8.404;2023-04-15T14:15:56;6.80;;;2.83;;
69386;SDS011;56575;48.942;8.404;2023-04-15T14:18:21;7.80;;;3.10;;
69386;SDS011;56575;48.942;8.404;2023-04-15T14:20:47;5.30;;;3.00;;
69386;SDS011;56575;48.942;8.404;2023-04-15T14:23:12;4.30;;;2.50;;
69386;SDS011;56575;48.942;8.404;2023-04-15T14:25:38;6.07;;;2.77;;
69386;SDS011;56575;48.942;8.404;2023-04-15T14:28:03;5.37;;;2.63;;
69386;SDS011;56575;48.942;8.404;2023-04-15T14:30:28;5.03;;;2.37;;
69386;SDS011;56575;48.942;8.404;2023-04-15T14:32:54;5.15;;;2.55;;
69386;SDS011;56575;48.942;8.404;2023-04-15T14:35:19;5.00;;;2.73;;
69386;SDS011;56575;48.942;8.404;2023-04-15T14:37:45;5.90;;;2.53;;
69386;SDS011;56575;48.942;8.404;2023-04-15T14:40:10;4.60;;;2.23;;
69386;SDS011;56575;48.942;8.404;2023-04-15T14:42:35;4.82;;;2.10;;
69386;SDS011;56575;48.942;8.404;2023-04-15T14:45:01;4.93;;;2.03;;
69386;SDS011;56575;48.942;8.404;2023-04-15T14:47:26;5.63;;;1.90;;
69386;SDS011;56575;48.942;8.404;2023-04-15T14:49:51;3.40;;;2.20;;
69386;SDS011;56575;48.942;8.404;2023-04-15T14:52:17;5.93;;;2.27;;
69386;SDS011;56575;48.942;8.404;2023-04-15T14:54:42;5.05;;;2.20;;
69386;SDS011;56575;48.942;8.404;2023-04-15T14:57:07;4.20;;;1.87;;
69386;SDS011;56575;48.942;8.404;2023-04-15T14:59:33;5.23;;;2.03;;
69386;SDS011;56575;48.942;8.404;2023-04-15T15:01:58;2.87;;;1.80;;
69386;SDS011;56575;48.942;8.404;2023-04-15T15:04:24;6.93;;;1.60;;